sensor_id;sensor_type;location;lat;lon;timestamp;P1;durP1;ratioP1;P2;durP2;ratioP2
58657;SDS011;44428;45.630;13.786;2022-08-19T00:01:47;9.57;;;2.90;;
58657;SDS011;44428;45.630;13.786;2022-08-19T00:04:15;9.02;;;3.10;;
58657;SDS011;44428;45.630;13.786;2022-08-19T00:06:42;8.73;;;3.00;;
58657;SDS011;44428;45.630;13.786;2022-08-19T00:09:09;10.52;;;2.70;;
58657;SDS011;44428;45.630;13.786;2022-08-19T00:11:39;7.35;;;3.35;;
58657;SDS011;44428;45.630;13.786;2022-08-19T00:14:05;11.05;;;3.00;;
58657;SDS011;44428;45.630;13.786;2022-08-19T00:16:34;15.43;;;4.70;;
58657;SDS011;44428;45.630;13.786;2022-08-19T00:18:59;9.93;;;3.90;;
58657;SDS011;44428;45.630;13.786;2022-08-19T00:21:25;12.88;;;3.33;;
58657;SDS011;44428;45.630;13.786;2022-08-19T00:23:55;9.40;;;3.47;;
58657;SDS011;44428;45.630;13.786;2022-08-19T00:26:25;10.27;;;3.08;;
58657;SDS011;44428;45.630;13.786;2022-08-19T00:28:52;11.73;;;3.83;;
58657;SDS011;44428;45.630;13.786;2022-08-19T00:31:18;10.45;;;3.40;;
58657;SDS011;44428;45.630;13.786;2022-08-19T00:33:43;10.75;;;3.20;;
58657;SDS011;44428;45.630;13.786;2022-08-19T00:36:09;9.50;;;2.85;;
58657;SDS011;44428;45.630;13.786;2022-08-19T00:38:36;9.18;;;3.22;;
58657;SDS011;44428;45.630;13.786;2022-08-19T00:41:06;10.00;;;3.15;;
58657;SDS011;44428;45.630;13.786;2022-08-19T00:43:32;10.68;;;2.80;;
58657;SDS011;44428;45.630;13.786;2022-08-19T00:45:58;11.43;;;3.13;;
58657;SDS011;44428;45.630;13.786;2022-08-19T00:48:24;9.73;;;2.75;;
58657;SDS011;44428;45.630;13.786;2022-08-19T00:50:50;10.43;;;3.28;;
58657;SDS011;44428;45.630;13.786;2022-08-19T00:53:20;10.30;;;2.67;;
58657;SDS011;44428;45.630;13.786;2022-08-19T00:55:49;12.60;;;3.15;;
58657;SDS011;44428;45.630;13.786;2022-08-19T00:58:19;10.00;;;2.85;;
58657;SDS011;44428;45.630;13.786;2022-08-19T01:00:49;12.18;;;3.10;;
58657;SDS011;44428;45.630;13.786;2022-08-19T01:03:17;13.65;;;3.60;;
58657;SDS011;44428;45.630;13.786;2022-08-19T01:05:45;13.05;;;3.42;;
58657;SDS011;44428;45.630;13.786;2022-08-19T01:08:13;15.32;;;3.88;;
58657;SDS011;44428;45.630;13.786;2022-08-19T01:10:43;11.05;;;3.38;;
58657;SDS011;44428;45.630;13.786;2022-08-19T01:13:12;11.20;;;3.30;;
58657;SDS011;44428;45.630;13.786;2022-08-19T01:15:41;11.82;;;3.50;;
58657;SDS011;44428;45.630;13.786;2022-08-19T01:18:15;14.90;;;3.88;;
58657;SDS011;44428;45.630;13.786;2022-08-19T01:20:43;14.35;;;4.22;;
58657;SDS011;44428;45.630;13.786;2022-08-19T01:23:09;11.20;;;4.20;;
58657;SDS011;44428;45.630;13.786;2022-08-19T01:25:49;16.55;;;4.55;;
58657;SDS011;44428;45.630;13.786;2022-08-19T01:30:47;26.48;;;6.32;;
58657;SDS011;44428;45.630;13.786;2022-08-19T01:33:13;24.50;;;7.10;;
58657;SDS011;44428;45.630;13.786;2022-08-19T01:35:39;31.33;;;7.70;;
58657;SDS011;44428;45.630;13.786;2022-08-19T01:38:07;18.95;;;6.78;;
58657;SDS011;44428;45.630;13.786;2022-08-19T01:40:37;17.63;;;5.80;;
58657;SDS011;44428;45.630;13.786;2022-08-19T01:43:05;19.30;;;6.20;;
58657;SDS011;44428;45.630;13.786;2022-08-19T01:45:32;20.27;;;6.60;;
58657;SDS011;44428;45.630;13.786;2022-08-19T01:47:59;15.73;;;6.25;;
58657;SDS011;44428;45.630;13.786;2022-08-19T01:50:26;12.10;;;5.47;;
58657;SDS011;44428;45.630;13.786;2022-08-19T01:52:52;15.93;;;5.40;;
58657;SDS011;44428;45.630;13.786;2022-08-19T01:55:20;20.77;;;5.95;;
58657;SDS011;44428;45.630;13.786;2022-08-19T01:57:50;17.38;;;5.60;;
58657;SDS011;44428;45.630;13.786;2022-08-19T02:00:20;14.10;;;5.07;;
58657;SDS011;44428;45.630;13.786;2022-08-19T02:02:48;11.63;;;5.03;;
58657;SDS011;44428;45.630;13.786;2022-08-19T02:05:14;12.18;;;5.00;;
58657;SDS011;44428;45.630;13.786;2022-08-19T02:07:43;11.52;;;4.30;;
58657;SDS011;44428;45.630;13.786;2022-08-19T02:10:12;9.27;;;4.13;;
58657;SDS011;44428;45.630;13.786;2022-08-19T02:12:41;11.27;;;4.13;;
58657;SDS011;44428;45.630;13.786;2022-08-19T02:15:06;11.82;;;4.60;;
58657;SDS011;44428;45.630;13.786;2022-08-19T02:17:33;12.38;;;4.43;;
58657;SDS011;44428;45.630;13.786;2022-08-19T02:19:59;12.10;;;5.38;;
58657;SDS011;44428;45.630;13.786;2022-08-19T02:22:25;15.05;;;4.88;;
58657;SDS011;44428;45.630;13.786;2022-08-19T02:24:54;10.40;;;4.55;;
58657;SDS011;44428;45.630;13.786;2022-08-19T02:27:21;12.52;;;4.60;;
58657;SDS011;44428;45.630;13.786;2022-08-19T02:29:47;12.02;;;4.90;;
58657;SDS011;44428;45.630;13.786;2022-08-19T02:32:14;10.32;;;4.28;;
58657;SDS011;44428;45.630;13.786;2022-08-19T02:34:40;10.10;;;3.58;;
58657;SDS011;44428;45.630;13.786;2022-08-19T02:37:06;9.95;;;3.42;;
58657;SDS011;44428;45.630;13.786;2022-08-19T02:39:52;10.57;;;3.20;;
58657;SDS011;44428;45.630;13.786;2022-08-19T02:42:18;8.82;;;3.17;;
58657;SDS011;44428;45.630;13.786;2022-08-19T02:44:44;9.75;;;3.20;;
58657;SDS011;44428;45.630;13.786;2022-08-19T02:47:09;9.00;;;2.75;;
58657;SDS011;44428;45.630;13.786;2022-08-19T02:49:36;9.55;;;2.78;;
58657;SDS011;44428;45.630;13.786;2022-08-19T02:52:02;9.57;;;3.35;;
58657;SDS011;44428;45.630;13.786;2022-08-19T02:54:28;7.32;;;2.47;;
58657;SDS011;44428;45.630;13.786;2022-08-19T02:56:54;8.27;;;2.75;;
58657;SDS011;44428;45.630;13.786;2022-08-19T02:59:20;10.10;;;2.88;;
58657;SDS011;44428;45.630;13.786;2022-08-19T03:01:46;6.28;;;2.58;;
58657;SDS011;44428;45.630;13.786;2022-08-19T03:04:12;10.90;;;2.60;;
58657;SDS011;44428;45.630;13.786;2022-08-19T03:06:43;6.88;;;2.38;;
58657;SDS011;44428;45.630;13.786;2022-08-19T03:09:11;10.68;;;2.63;;
58657;SDS011;44428;45.630;13.786;2022-08-19T03:11:37;10.07;;;2.72;;
58657;SDS011;44428;45.630;13.786;2022-08-19T03:14:03;7.93;;;2.60;;
58657;SDS011;44428;45.630;13.786;2022-08-19T03:16:33;5.93;;;2.85;;
58657;SDS011;44428;45.630;13.786;2022-08-19T03:19:00;9.63;;;2.90;;
58657;SDS011;44428;45.630;13.786;2022-08-19T03:21:28;7.65;;;2.33;;
58657;SDS011;44428;45.630;13.786;2022-08-19T03:23:57;8.73;;;2.25;;
58657;SDS011;44428;45.630;13.786;2022-08-19T03:26:25;9.40;;;2.40;;
58657;SDS011;44428;45.630;13.786;2022-08-19T03:28:51;10.05;;;2.60;;
58657;SDS011;44428;45.630;13.786;2022-08-19T03:31:20;5.80;;;2.10;;
58657;SDS011;44428;45.630;13.786;2022-08-19T03:33:48;9.75;;;2.42;;
58657;SDS011;44428;45.630;13.786;2022-08-19T03:36:16;8.18;;;2.47;;
58657;SDS011;44428;45.630;13.786;2022-08-19T03:38:50;14.45;;;2.85;;
58657;SDS011;44428;45.630;13.786;2022-08-19T03:41:22;10.50;;;2.53;;
58657;SDS011;44428;45.630;13.786;2022-08-19T03:43:50;11.57;;;2.47;;
58657;SDS011;44428;45.630;13.786;2022-08-19T03:46:19;7.82;;;2.15;;
58657;SDS011;44428;45.630;13.786;2022-08-19T03:48:46;5.23;;;1.87;;
58657;SDS011;44428;45.630;13.786;2022-08-19T03:51:18;10.13;;;2.30;;
58657;SDS011;44428;45.630;13.786;2022-08-19T03:53:50;9.60;;;2.42;;
58657;SDS011;44428;45.630;13.786;2022-08-19T03:56:16;7.95;;;1.90;;
58657;SDS011;44428;45.630;13.786;2022-08-19T03:58:42;7.95;;;2.17;;
58657;SDS011;44428;45.630;13.786;2022-08-19T04:01:10;8.65;;;2.60;;
58657;SDS011;44428;45.630;13.786;2022-08-19T04:03:37;11.55;;;2.92;;
58657;SDS011;44428;45.630;13.786;2022-08-19T04:08:38;14.27;;;3.45;;
58657;SDS011;44428;45.630;13.786;2022-08-19T04:11:10;12.32;;;3.25;;
58657;SDS011;44428;45.630;13.786;2022-08-19T04:13:38;17.95;;;4.30;;
58657;SDS011;44428;45.630;13.786;2022-08-19T04:16:05;16.35;;;3.35;;
58657;SDS011;44428;45.630;13.786;2022-08-19T04:18:32;12.48;;;3.35;;
58657;SDS011;44428;45.630;13.786;2022-08-19T04:20:58;10.93;;;3.35;;
58657;SDS011;44428;45.630;13.786;2022-08-19T04:23:25;10.68;;;3.38;;
58657;SDS011;44428;45.630;13.786;2022-08-19T04:25:52;12.25;;;3.20;;
58657;SDS011;44428;45.630;13.786;2022-08-19T04:28:18;7.90;;;3.15;;
58657;SDS011;44428;45.630;13.786;2022-08-19T04:30:45;9.52;;;2.95;;
58657;SDS011;44428;45.630;13.786;2022-08-19T04:33:13;9.68;;;2.65;;
58657;SDS011;44428;45.630;13.786;2022-08-19T04:35:41;11.35;;;2.38;;
58657;SDS011;44428;45.630;13.786;2022-08-19T04:38:09;7.95;;;2.15;;
58657;SDS011;44428;45.630;13.786;2022-08-19T04:40:46;7.60;;;2.33;;
58657;SDS011;44428;45.630;13.786;2022-08-19T04:43:32;5.05;;;1.70;;
58657;SDS011;44428;45.630;13.786;2022-08-19T04:46:06;6.30;;;1.50;;
58657;SDS011;44428;45.630;13.786;2022-08-19T04:48:34;10.07;;;1.75;;
58657;SDS011;44428;45.630;13.786;2022-08-19T04:51:00;3.78;;;0.98;;
58657;SDS011;44428;45.630;13.786;2022-08-19T04:53:30;3.75;;;0.77;;
58657;SDS011;44428;45.630;13.786;2022-08-19T04:55:58;4.05;;;0.93;;
58657;SDS011;44428;45.630;13.786;2022-08-19T04:58:26;5.40;;;1.00;;
58657;SDS011;44428;45.630;13.786;2022-08-19T05:00:53;2.65;;;0.88;;
58657;SDS011;44428;45.630;13.786;2022-08-19T05:03:19;4.38;;;1.10;;
58657;SDS011;44428;45.630;13.786;2022-08-19T05:05:47;4.53;;;1.25;;
58657;SDS011;44428;45.630;13.786;2022-08-19T05:08:16;3.17;;;1.02;;
58657;SDS011;44428;45.630;13.786;2022-08-19T05:10:45;2.90;;;0.77;;
58657;SDS011;44428;45.630;13.786;2022-08-19T05:13:12;2.42;;;1.10;;
58657;SDS011;44428;45.630;13.786;2022-08-19T05:15:39;3.53;;;0.75;;
58657;SDS011;44428;45.630;13.786;2022-08-19T05:18:05;2.28;;;0.70;;
58657;SDS011;44428;45.630;13.786;2022-08-19T05:20:50;2.42;;;0.75;;
58657;SDS011;44428;45.630;13.786;2022-08-19T05:23:51;3.25;;;0.93;;
58657;SDS011;44428;45.630;13.786;2022-08-19T05:26:16;3.55;;;0.95;;
58657;SDS011;44428;45.630;13.786;2022-08-19T05:28:42;2.17;;;0.65;;
58657;SDS011;44428;45.630;13.786;2022-08-19T05:31:08;3.80;;;0.80;;
58657;SDS011;44428;45.630;13.786;2022-08-19T05:33:33;2.65;;;0.68;;
58657;SDS011;44428;45.630;13.786;2022-08-19T05:36:00;2.92;;;0.68;;
58657;SDS011;44428;45.630;13.786;2022-08-19T05:38:26;1.85;;;0.75;;
58657;SDS011;44428;45.630;13.786;2022-08-19T05:40:52;4.30;;;0.73;;
58657;SDS011;44428;45.630;13.786;2022-08-19T05:43:18;2.88;;;0.80;;
58657;SDS011;44428;45.630;13.786;2022-08-19T05:45:44;2.20;;;0.80;;
58657;SDS011;44428;45.630;13.786;2022-08-19T05:48:10;5.10;;;1.10;;
58657;SDS011;44428;45.630;13.786;2022-08-19T05:50:37;5.00;;;0.70;;
58657;SDS011;44428;45.630;13.786;2022-08-19T05:53:06;2.20;;;0.65;;
58657;SDS011;44428;45.630;13.786;2022-08-19T05:55:34;1.45;;;0.55;;
58657;SDS011;44428;45.630;13.786;2022-08-19T05:58:03;3.95;;;0.82;;
58657;SDS011;44428;45.630;13.786;2022-08-19T06:00:29;3.33;;;0.82;;
58657;SDS011;44428;45.630;13.786;2022-08-19T06:02:56;3.08;;;0.80;;
58657;SDS011;44428;45.630;13.786;2022-08-19T06:05:24;3.38;;;0.70;;
58657;SDS011;44428;45.630;13.786;2022-08-19T06:07:50;5.00;;;0.82;;
58657;SDS011;44428;45.630;13.786;2022-08-19T06:10:16;3.85;;;0.70;;
58657;SDS011;44428;45.630;13.786;2022-08-19T06:12:41;4.25;;;1.00;;
58657;SDS011;44428;45.630;13.786;2022-08-19T06:15:08;2.58;;;0.75;;
58657;SDS011;44428;45.630;13.786;2022-08-19T06:17:38;4.20;;;1.00;;
58657;SDS011;44428;45.630;13.786;2022-08-19T06:20:05;2.55;;;0.75;;
58657;SDS011;44428;45.630;13.786;2022-08-19T06:22:37;2.28;;;0.70;;
58657;SDS011;44428;45.630;13.786;2022-08-19T06:25:04;5.03;;;1.73;;
58657;SDS011;44428;45.630;13.786;2022-08-19T06:27:30;2.83;;;0.88;;
58657;SDS011;44428;45.630;13.786;2022-08-19T06:29:57;4.35;;;1.02;;
58657;SDS011;44428;45.630;13.786;2022-08-19T06:32:23;3.60;;;0.85;;
58657;SDS011;44428;45.630;13.786;2022-08-19T06:34:49;5.97;;;0.98;;
58657;SDS011;44428;45.630;13.786;2022-08-19T06:37:15;6.65;;;1.27;;
58657;SDS011;44428;45.630;13.786;2022-08-19T06:39:42;4.63;;;1.10;;
58657;SDS011;44428;45.630;13.786;2022-08-19T06:42:10;7.30;;;1.30;;
58657;SDS011;44428;45.630;13.786;2022-08-19T06:44:39;5.15;;;1.45;;
58657;SDS011;44428;45.630;13.786;2022-08-19T06:47:07;4.32;;;1.17;;
58657;SDS011;44428;45.630;13.786;2022-08-19T06:49:35;4.93;;;1.48;;
58657;SDS011;44428;45.630;13.786;2022-08-19T06:52:01;4.65;;;1.38;;
58657;SDS011;44428;45.630;13.786;2022-08-19T06:54:28;4.63;;;1.40;;
58657;SDS011;44428;45.630;13.786;2022-08-19T06:56:55;6.57;;;1.50;;
58657;SDS011;44428;45.630;13.786;2022-08-19T06:59:22;6.22;;;1.27;;
58657;SDS011;44428;45.630;13.786;2022-08-19T07:01:54;7.18;;;1.98;;
58657;SDS011;44428;45.630;13.786;2022-08-19T07:04:23;6.50;;;1.60;;
58657;SDS011;44428;45.630;13.786;2022-08-19T07:06:56;7.80;;;1.83;;
58657;SDS011;44428;45.630;13.786;2022-08-19T07:09:26;5.53;;;1.35;;
58657;SDS011;44428;45.630;13.786;2022-08-19T07:11:52;3.50;;;1.42;;
58657;SDS011;44428;45.630;13.786;2022-08-19T07:14:20;6.80;;;1.40;;
58657;SDS011;44428;45.630;13.786;2022-08-19T07:16:48;5.15;;;1.13;;
58657;SDS011;44428;45.630;13.786;2022-08-19T07:19:17;4.38;;;1.15;;
58657;SDS011;44428;45.630;13.786;2022-08-19T07:21:45;8.15;;;1.45;;
58657;SDS011;44428;45.630;13.786;2022-08-19T07:24:12;6.20;;;1.40;;
58657;SDS011;44428;45.630;13.786;2022-08-19T07:26:40;4.55;;;0.95;;
58657;SDS011;44428;45.630;13.786;2022-08-19T07:29:07;5.18;;;1.13;;
58657;SDS011;44428;45.630;13.786;2022-08-19T07:31:33;7.00;;;1.30;;
58657;SDS011;44428;45.630;13.786;2022-08-19T07:34:02;3.72;;;1.02;;
58657;SDS011;44428;45.630;13.786;2022-08-19T07:36:32;7.30;;;1.95;;
58657;SDS011;44428;45.630;13.786;2022-08-19T07:39:00;7.40;;;1.42;;
58657;SDS011;44428;45.630;13.786;2022-08-19T07:41:29;8.40;;;1.60;;
58657;SDS011;44428;45.630;13.786;2022-08-19T07:43:57;10.10;;;1.92;;
58657;SDS011;44428;45.630;13.786;2022-08-19T07:46:24;6.63;;;1.40;;
58657;SDS011;44428;45.630;13.786;2022-08-19T07:48:50;7.03;;;1.90;;
58657;SDS011;44428;45.630;13.786;2022-08-19T07:51:18;6.22;;;2.10;;
58657;SDS011;44428;45.630;13.786;2022-08-19T07:53:46;7.30;;;1.50;;
58657;SDS011;44428;45.630;13.786;2022-08-19T07:56:14;9.23;;;1.92;;
58657;SDS011;44428;45.630;13.786;2022-08-19T07:58:48;7.82;;;1.70;;
58657;SDS011;44428;45.630;13.786;2022-08-19T08:01:16;7.90;;;1.83;;
58657;SDS011;44428;45.630;13.786;2022-08-19T08:03:44;9.60;;;2.08;;
58657;SDS011;44428;45.630;13.786;2022-08-19T08:06:29;7.35;;;1.83;;
58657;SDS011;44428;45.630;13.786;2022-08-19T08:09:15;7.60;;;1.63;;
58657;SDS011;44428;45.630;13.786;2022-08-19T08:11:49;6.47;;;1.45;;
58657;SDS011;44428;45.630;13.786;2022-08-19T08:14:23;8.35;;;1.77;;
58657;SDS011;44428;45.630;13.786;2022-08-19T08:16:54;8.15;;;2.03;;
58657;SDS011;44428;45.630;13.786;2022-08-19T08:19:21;7.38;;;1.50;;
58657;SDS011;44428;45.630;13.786;2022-08-19T08:21:48;10.43;;;2.22;;
58657;SDS011;44428;45.630;13.786;2022-08-19T08:24:15;8.73;;;2.05;;
58657;SDS011;44428;45.630;13.786;2022-08-19T08:26:44;8.15;;;1.85;;
58657;SDS011;44428;45.630;13.786;2022-08-19T08:29:21;10.13;;;1.63;;
58657;SDS011;44428;45.630;13.786;2022-08-19T08:31:47;8.98;;;1.90;;
58657;SDS011;44428;45.630;13.786;2022-08-19T08:34:13;6.13;;;1.65;;
58657;SDS011;44428;45.630;13.786;2022-08-19T08:36:43;6.32;;;1.80;;
58657;SDS011;44428;45.630;13.786;2022-08-19T08:39:19;8.07;;;2.15;;
58657;SDS011;44428;45.630;13.786;2022-08-19T08:41:50;7.85;;;2.15;;
58657;SDS011;44428;45.630;13.786;2022-08-19T08:44:23;5.85;;;2.13;;
58657;SDS011;44428;45.630;13.786;2022-08-19T08:47:00;6.97;;;2.42;;
58657;SDS011;44428;45.630;13.786;2022-08-19T08:49:42;11.23;;;2.70;;
58657;SDS011;44428;45.630;13.786;2022-08-19T08:54:38;13.27;;;2.25;;
58657;SDS011;44428;45.630;13.786;2022-08-19T08:57:10;11.40;;;2.42;;
58657;SDS011;44428;45.630;13.786;2022-08-19T09:00:20;9.43;;;2.03;;
58657;SDS011;44428;45.630;13.786;2022-08-19T09:02:49;10.95;;;2.30;;
58657;SDS011;44428;45.630;13.786;2022-08-19T09:05:15;14.98;;;2.97;;
58657;SDS011;44428;45.630;13.786;2022-08-19T09:07:57;9.85;;;2.22;;
58657;SDS011;44428;45.630;13.786;2022-08-19T09:15:51;16.58;;;3.17;;
58657;SDS011;44428;45.630;13.786;2022-08-19T09:18:20;15.45;;;2.88;;
58657;SDS011;44428;45.630;13.786;2022-08-19T09:20:46;15.57;;;3.53;;
58657;SDS011;44428;45.630;13.786;2022-08-19T09:23:15;20.20;;;3.85;;
58657;SDS011;44428;45.630;13.786;2022-08-19T09:25:41;13.68;;;3.35;;
58657;SDS011;44428;45.630;13.786;2022-08-19T09:28:07;22.90;;;4.10;;
58657;SDS011;44428;45.630;13.786;2022-08-19T09:30:34;22.63;;;4.07;;
58657;SDS011;44428;45.630;13.786;2022-08-19T09:33:05;21.30;;;4.20;;
58657;SDS011;44428;45.630;13.786;2022-08-19T09:35:32;16.00;;;4.32;;
58657;SDS011;44428;45.630;13.786;2022-08-19T09:37:58;25.77;;;5.07;;
58657;SDS011;44428;45.630;13.786;2022-08-19T09:40:26;20.80;;;4.30;;
58657;SDS011;44428;45.630;13.786;2022-08-19T09:42:53;18.65;;;4.10;;
58657;SDS011;44428;45.630;13.786;2022-08-19T09:45:20;25.77;;;4.20;;
58657;SDS011;44428;45.630;13.786;2022-08-19T09:47:47;22.75;;;4.68;;
58657;SDS011;44428;45.630;13.786;2022-08-19T09:50:16;15.10;;;4.32;;
58657;SDS011;44428;45.630;13.786;2022-08-19T09:52:43;24.23;;;4.50;;
58657;SDS011;44428;45.630;13.786;2022-08-19T09:55:09;18.92;;;4.38;;
58657;SDS011;44428;45.630;13.786;2022-08-19T09:57:36;18.65;;;4.85;;
58657;SDS011;44428;45.630;13.786;2022-08-19T10:00:03;20.10;;;4.40;;
58657;SDS011;44428;45.630;13.786;2022-08-19T10:02:33;20.33;;;5.22;;
58657;SDS011;44428;45.630;13.786;2022-08-19T10:04:59;19.83;;;4.35;;
58657;SDS011;44428;45.630;13.786;2022-08-19T10:07:43;23.65;;;4.40;;
58657;SDS011;44428;45.630;13.786;2022-08-19T10:10:09;23.80;;;6.20;;
58657;SDS011;44428;45.630;13.786;2022-08-19T10:12:36;25.80;;;4.72;;
58657;SDS011;44428;45.630;13.786;2022-08-19T10:15:02;25.65;;;5.07;;
58657;SDS011;44428;45.630;13.786;2022-08-19T10:17:28;26.65;;;5.03;;
58657;SDS011;44428;45.630;13.786;2022-08-19T10:19:54;30.73;;;6.65;;
58657;SDS011;44428;45.630;13.786;2022-08-19T10:22:20;19.77;;;4.88;;
58657;SDS011;44428;45.630;13.786;2022-08-19T10:24:45;18.65;;;4.80;;
58657;SDS011;44428;45.630;13.786;2022-08-19T10:27:12;27.27;;;5.90;;
58657;SDS011;44428;45.630;13.786;2022-08-19T10:29:39;32.63;;;6.22;;
58657;SDS011;44428;45.630;13.786;2022-08-19T10:32:06;27.67;;;5.43;;
58657;SDS011;44428;45.630;13.786;2022-08-19T10:34:34;30.55;;;6.82;;
58657;SDS011;44428;45.630;13.786;2022-08-19T10:37:01;28.45;;;7.05;;
58657;SDS011;44428;45.630;13.786;2022-08-19T10:39:29;25.25;;;5.88;;
58657;SDS011;44428;45.630;13.786;2022-08-19T10:41:56;24.63;;;5.75;;
58657;SDS011;44428;45.630;13.786;2022-08-19T10:44:30;31.42;;;6.07;;
58657;SDS011;44428;45.630;13.786;2022-08-19T10:47:17;24.88;;;5.22;;
58657;SDS011;44428;45.630;13.786;2022-08-19T10:49:53;14.50;;;3.63;;
58657;SDS011;44428;45.630;13.786;2022-08-19T10:52:47;14.15;;;4.22;;
58657;SDS011;44428;45.630;13.786;2022-08-19T10:55:19;14.30;;;4.20;;
58657;SDS011;44428;45.630;13.786;2022-08-19T10:58:13;13.50;;;3.42;;
58657;SDS011;44428;45.630;13.786;2022-08-19T11:00:42;11.25;;;4.10;;
58657;SDS011;44428;45.630;13.786;2022-08-19T11:03:13;13.63;;;3.75;;
58657;SDS011;44428;45.630;13.786;2022-08-19T11:05:40;11.77;;;3.58;;
58657;SDS011;44428;45.630;13.786;2022-08-19T11:08:16;14.40;;;4.15;;
58657;SDS011;44428;45.630;13.786;2022-08-19T11:10:43;12.50;;;3.88;;
58657;SDS011;44428;45.630;13.786;2022-08-19T11:13:13;11.10;;;2.88;;
58657;SDS011;44428;45.630;13.786;2022-08-19T11:15:40;11.55;;;3.05;;
58657;SDS011;44428;45.630;13.786;2022-08-19T11:18:07;9.80;;;3.10;;
58657;SDS011;44428;45.630;13.786;2022-08-19T11:20:35;13.00;;;3.50;;
58657;SDS011;44428;45.630;13.786;2022-08-19T11:23:02;11.73;;;3.88;;
58657;SDS011;44428;45.630;13.786;2022-08-19T11:25:34;11.57;;;3.17;;
58657;SDS011;44428;45.630;13.786;2022-08-19T11:28:06;9.93;;;3.05;;
58657;SDS011;44428;45.630;13.786;2022-08-19T11:30:34;10.27;;;3.85;;
58657;SDS011;44428;45.630;13.786;2022-08-19T11:33:06;11.82;;;4.05;;
58657;SDS011;44428;45.630;13.786;2022-08-19T11:35:32;12.80;;;4.30;;
58657;SDS011;44428;45.630;13.786;2022-08-19T11:38:05;13.07;;;3.28;;
58657;SDS011;44428;45.630;13.786;2022-08-19T11:40:35;12.15;;;5.10;;
58657;SDS011;44428;45.630;13.786;2022-08-19T11:43:06;14.10;;;2.90;;
58657;SDS011;44428;45.630;13.786;2022-08-19T11:45:38;9.90;;;3.67;;
58657;SDS011;44428;45.630;13.786;2022-08-19T11:48:16;10.02;;;3.67;;
58657;SDS011;44428;45.630;13.786;2022-08-19T11:50:52;9.27;;;3.03;;
58657;SDS011;44428;45.630;13.786;2022-08-19T11:53:30;11.60;;;3.03;;
58657;SDS011;44428;45.630;13.786;2022-08-19T11:56:23;8.85;;;2.60;;
58657;SDS011;44428;45.630;13.786;2022-08-19T11:59:14;9.00;;;2.83;;
58657;SDS011;44428;45.630;13.786;2022-08-19T12:01:41;11.32;;;3.00;;
58657;SDS011;44428;45.630;13.786;2022-08-19T12:04:09;11.63;;;3.10;;
58657;SDS011;44428;45.630;13.786;2022-08-19T12:06:37;10.68;;;2.72;;
58657;SDS011;44428;45.630;13.786;2022-08-19T12:09:14;10.60;;;2.92;;
58657;SDS011;44428;45.630;13.786;2022-08-19T12:11:53;15.68;;;2.90;;
58657;SDS011;44428;45.630;13.786;2022-08-19T12:14:22;13.82;;;3.30;;
58657;SDS011;44428;45.630;13.786;2022-08-19T12:16:49;7.03;;;2.20;;
58657;SDS011;44428;45.630;13.786;2022-08-19T12:19:22;11.45;;;2.55;;
58657;SDS011;44428;45.630;13.786;2022-08-19T12:21:51;10.38;;;2.50;;
58657;SDS011;44428;45.630;13.786;2022-08-19T12:24:24;9.15;;;2.40;;
58657;SDS011;44428;45.630;13.786;2022-08-19T12:26:54;9.43;;;2.70;;
58657;SDS011;44428;45.630;13.786;2022-08-19T12:29:24;6.38;;;2.33;;
58657;SDS011;44428;45.630;13.786;2022-08-19T12:31:55;9.23;;;1.90;;
58657;SDS011;44428;45.630;13.786;2022-08-19T12:34:28;9.75;;;2.80;;
58657;SDS011;44428;45.630;13.786;2022-08-19T12:37:00;7.28;;;2.90;;
58657;SDS011;44428;45.630;13.786;2022-08-19T12:39:38;9.10;;;2.20;;
58657;SDS011;44428;45.630;13.786;2022-08-19T12:42:11;11.32;;;2.58;;
58657;SDS011;44428;45.630;13.786;2022-08-19T12:44:42;9.18;;;2.40;;
58657;SDS011;44428;45.630;13.786;2022-08-19T12:47:13;8.23;;;1.98;;
58657;SDS011;44428;45.630;13.786;2022-08-19T12:49:42;6.93;;;2.42;;
58657;SDS011;44428;45.630;13.786;2022-08-19T12:52:09;8.95;;;2.00;;
58657;SDS011;44428;45.630;13.786;2022-08-19T12:54:46;8.18;;;1.90;;
58657;SDS011;44428;45.630;13.786;2022-08-19T12:57:23;10.60;;;2.33;;
58657;SDS011;44428;45.630;13.786;2022-08-19T12:59:51;9.07;;;2.30;;
58657;SDS011;44428;45.630;13.786;2022-08-19T13:02:19;8.00;;;2.40;;
58657;SDS011;44428;45.630;13.786;2022-08-19T13:04:45;6.95;;;1.65;;
58657;SDS011;44428;45.630;13.786;2022-08-19T13:07:13;10.68;;;2.97;;
58657;SDS011;44428;45.630;13.786;2022-08-19T13:09:39;7.32;;;1.95;;
58657;SDS011;44428;45.630;13.786;2022-08-19T13:12:11;8.70;;;2.17;;
58657;SDS011;44428;45.630;13.786;2022-08-19T13:14:45;8.30;;;2.10;;
58657;SDS011;44428;45.630;13.786;2022-08-19T13:17:15;9.07;;;2.60;;
58657;SDS011;44428;45.630;13.786;2022-08-19T13:19:43;10.25;;;2.10;;
58657;SDS011;44428;45.630;13.786;2022-08-19T13:22:14;8.70;;;2.20;;
58657;SDS011;44428;45.630;13.786;2022-08-19T13:24:40;9.43;;;2.33;;
58657;SDS011;44428;45.630;13.786;2022-08-19T13:27:08;8.13;;;2.42;;
58657;SDS011;44428;45.630;13.786;2022-08-19T13:29:35;15.05;;;2.83;;
58657;SDS011;44428;45.630;13.786;2022-08-19T13:32:24;8.05;;;2.20;;
58657;SDS011;44428;45.630;13.786;2022-08-19T13:35:08;8.38;;;2.17;;
58657;SDS011;44428;45.630;13.786;2022-08-19T13:37:38;9.98;;;2.15;;
58657;SDS011;44428;45.630;13.786;2022-08-19T13:40:19;8.70;;;1.98;;
58657;SDS011;44428;45.630;13.786;2022-08-19T13:42:50;9.25;;;2.22;;
58657;SDS011;44428;45.630;13.786;2022-08-19T13:45:22;8.43;;;2.42;;
58657;SDS011;44428;45.630;13.786;2022-08-19T13:47:51;12.65;;;2.95;;
58657;SDS011;44428;45.630;13.786;2022-08-19T13:50:22;10.70;;;3.83;;
58657;SDS011;44428;45.630;13.786;2022-08-19T13:52:55;5.97;;;2.75;;
58657;SDS011;44428;45.630;13.786;2022-08-19T13:55:22;7.18;;;2.55;;
58657;SDS011;44428;45.630;13.786;2022-08-19T13:57:52;7.75;;;1.77;;
58657;SDS011;44428;45.630;13.786;2022-08-19T14:00:20;5.82;;;1.90;;
58657;SDS011;44428;45.630;13.786;2022-08-19T14:02:54;5.78;;;2.50;;
58657;SDS011;44428;45.630;13.786;2022-08-19T14:05:21;6.78;;;1.70;;
58657;SDS011;44428;45.630;13.786;2022-08-19T14:07:52;7.97;;;1.70;;
58657;SDS011;44428;45.630;13.786;2022-08-19T14:10:29;6.40;;;1.90;;
58657;SDS011;44428;45.630;13.786;2022-08-19T14:13:02;5.57;;;1.80;;
58657;SDS011;44428;45.630;13.786;2022-08-19T14:15:30;10.30;;;1.87;;
58657;SDS011;44428;45.630;13.786;2022-08-19T14:17:57;5.95;;;1.63;;
58657;SDS011;44428;45.630;13.786;2022-08-19T14:20:27;9.35;;;1.80;;
58657;SDS011;44428;45.630;13.786;2022-08-19T14:22:53;7.93;;;1.90;;
58657;SDS011;44428;45.630;13.786;2022-08-19T14:25:23;4.38;;;1.70;;
58657;SDS011;44428;45.630;13.786;2022-08-19T14:27:56;9.10;;;2.20;;
58657;SDS011;44428;45.630;13.786;2022-08-19T14:30:25;5.93;;;1.45;;
58657;SDS011;44428;45.630;13.786;2022-08-19T14:33:04;3.92;;;1.52;;
58657;SDS011;44428;45.630;13.786;2022-08-19T14:35:32;4.38;;;1.25;;
58657;SDS011;44428;45.630;13.786;2022-08-19T14:38:04;4.75;;;1.13;;
58657;SDS011;44428;45.630;13.786;2022-08-19T14:40:32;6.32;;;1.55;;
58657;SDS011;44428;45.630;13.786;2022-08-19T14:43:01;4.70;;;1.48;;
58657;SDS011;44428;45.630;13.786;2022-08-19T14:45:30;5.43;;;1.70;;
58657;SDS011;44428;45.630;13.786;2022-08-19T14:48:06;10.45;;;1.75;;
58657;SDS011;44428;45.630;13.786;2022-08-19T14:50:41;6.75;;;1.58;;
58657;SDS011;44428;45.630;13.786;2022-08-19T14:53:17;10.77;;;1.98;;
58657;SDS011;44428;45.630;13.786;2022-08-19T14:55:45;6.57;;;1.95;;